sensor_id;sensor_type;location;lat;lon;timestamp;P1;durP1;ratioP1;P2;durP2;ratioP2
44636;SDS011;30343;0.000;0.000;2022-08-11T00:00:03;9.00;;;2.40;;
44636;SDS011;30343;0.000;0.000;2022-08-11T00:02:59;2.88;;;2.30;;
44636;SDS011;30343;0.000;0.000;2022-08-11T00:05:54;3.70;;;2.47;;
44636;SDS011;30343;0.000;0.000;2022-08-11T00:08:40;5.55;;;2.50;;
44636;SDS011;30343;0.000;0.000;2022-08-11T00:14:28;4.85;;;2.50;;
44636;SDS011;30343;0.000;0.000;2022-08-11T00:17:18;7.05;;;2.40;;
44636;SDS011;30343;0.000;0.000;2022-08-11T00:20:08;3.67;;;2.70;;
44636;SDS011;30343;0.000;0.000;2022-08-11T00:22:59;6.65;;;3.13;;
44636;SDS011;30343;0.000;0.000;2022-08-11T00:25:54;7.32;;;2.72;;
44636;SDS011;30343;0.000;0.000;2022-08-11T00:28:41;5.70;;;2.75;;
44636;SDS011;30343;0.000;0.000;2022-08-11T00:31:27;4.57;;;2.80;;
44636;SDS011;30343;0.000;0.000;2022-08-11T00:34:22;5.38;;;2.38;;
44636;SDS011;30343;0.000;0.000;2022-08-11T00:39:58;4.80;;;2.88;;
44636;SDS011;30343;0.000;0.000;2022-08-11T00:43:08;4.78;;;2.60;;
44636;SDS011;30343;0.000;0.000;2022-08-11T00:46:27;4.18;;;2.58;;
44636;SDS011;30343;0.000;0.000;2022-08-11T01:36:09;3.85;;;3.33;;
44636;SDS011;30343;0.000;0.000;2022-08-11T01:45:56;5.78;;;2.42;;
44636;SDS011;30343;0.000;0.000;2022-08-11T01:48:56;3.75;;;2.60;;
44636;SDS011;30343;0.000;0.000;2022-08-11T01:58:48;4.35;;;2.58;;
44636;SDS011;30343;0.000;0.000;2022-08-11T02:04:51;5.80;;;2.60;;
44636;SDS011;30343;0.000;0.000;2022-08-11T02:07:51;8.40;;;3.00;;
44636;SDS011;30343;0.000;0.000;2022-08-11T02:14:23;5.07;;;3.00;;
44636;SDS011;30343;0.000;0.000;2022-08-11T02:17:19;5.60;;;2.75;;
44636;SDS011;30343;0.000;0.000;2022-08-11T02:20:27;4.63;;;2.88;;
44636;SDS011;30343;0.000;0.000;2022-08-11T02:23:42;4.90;;;3.42;;
44636;SDS011;30343;0.000;0.000;2022-08-11T02:26:58;4.85;;;2.67;;
44636;SDS011;30343;0.000;0.000;2022-08-11T02:32:34;4.38;;;2.95;;
44636;SDS011;30343;0.000;0.000;2022-08-11T02:36:05;5.30;;;2.72;;
44636;SDS011;30343;0.000;0.000;2022-08-11T02:39:12;5.70;;;2.70;;
44636;SDS011;30343;0.000;0.000;2022-08-11T02:42:06;3.17;;;2.60;;
44636;SDS011;30343;0.000;0.000;2022-08-11T02:48:01;3.90;;;2.95;;
44636;SDS011;30343;0.000;0.000;2022-08-11T02:54:52;4.45;;;2.78;;
44636;SDS011;30343;0.000;0.000;2022-08-11T02:57:42;3.80;;;2.72;;
44636;SDS011;30343;0.000;0.000;2022-08-11T03:04:29;4.95;;;3.13;;
44636;SDS011;30343;0.000;0.000;2022-08-11T03:07:30;4.05;;;3.03;;
44636;SDS011;30343;0.000;0.000;2022-08-11T03:11:11;3.60;;;2.60;;
44636;SDS011;30343;0.000;0.000;2022-08-11T03:18:09;5.38;;;3.35;;
44636;SDS011;30343;0.000;0.000;2022-08-11T03:24:13;4.75;;;3.08;;
44636;SDS011;30343;0.000;0.000;2022-08-11T03:27:06;4.40;;;3.38;;
44636;SDS011;30343;0.000;0.000;2022-08-11T03:30:03;6.47;;;3.40;;
44636;SDS011;30343;0.000;0.000;2022-08-11T03:32:56;5.38;;;2.70;;
44636;SDS011;30343;0.000;0.000;2022-08-11T03:36:16;5.65;;;2.55;;
44636;SDS011;30343;0.000;0.000;2022-08-11T03:51:24;4.13;;;3.15;;
44636;SDS011;30343;0.000;0.000;2022-08-11T03:54:17;4.28;;;2.78;;
44636;SDS011;30343;0.000;0.000;2022-08-11T04:26:11;3.95;;;2.95;;
44636;SDS011;30343;0.000;0.000;2022-08-11T05:05:02;4.88;;;3.35;;
44636;SDS011;30343;0.000;0.000;2022-08-11T05:17:30;7.05;;;3.20;;
44636;SDS011;30343;0.000;0.000;2022-08-11T05:20:41;4.82;;;2.90;;
44636;SDS011;30343;0.000;0.000;2022-08-11T05:23:52;7.43;;;3.30;;
44636;SDS011;30343;0.000;0.000;2022-08-11T05:27:00;6.80;;;2.80;;
44636;SDS011;30343;0.000;0.000;2022-08-11T05:30:07;7.60;;;3.17;;
44636;SDS011;30343;0.000;0.000;2022-08-11T05:33:29;5.32;;;2.85;;
44636;SDS011;30343;0.000;0.000;2022-08-11T05:36:44;6.13;;;3.73;;
44636;SDS011;30343;0.000;0.000;2022-08-11T05:39:37;5.13;;;3.15;;
44636;SDS011;30343;0.000;0.000;2022-08-11T05:42:49;6.03;;;2.65;;
44636;SDS011;30343;0.000;0.000;2022-08-11T05:46:00;7.50;;;3.65;;
44636;SDS011;30343;0.000;0.000;2022-08-11T05:49:07;6.07;;;3.38;;
44636;SDS011;30343;0.000;0.000;2022-08-11T05:52:20;7.78;;;3.63;;
44636;SDS011;30343;0.000;0.000;2022-08-11T05:55:28;7.95;;;3.65;;
44636;SDS011;30343;0.000;0.000;2022-08-11T05:58:35;12.93;;;4.57;;
44636;SDS011;30343;0.000;0.000;2022-08-11T06:04:11;9.85;;;4.13;;
44636;SDS011;30343;0.000;0.000;2022-08-11T06:07:09;9.35;;;3.70;;
44636;SDS011;30343;0.000;0.000;2022-08-11T06:09:54;9.85;;;4.68;;
44636;SDS011;30343;0.000;0.000;2022-08-11T06:12:49;11.52;;;3.95;;
44636;SDS011;30343;0.000;0.000;2022-08-11T06:15:44;13.20;;;4.90;;
44636;SDS011;30343;0.000;0.000;2022-08-11T06:18:31;12.93;;;4.25;;
44636;SDS011;30343;0.000;0.000;2022-08-11T06:21:16;12.63;;;4.53;;
44636;SDS011;30343;0.000;0.000;2022-08-11T06:24:11;13.13;;;4.25;;
44636;SDS011;30343;0.000;0.000;2022-08-11T06:26:58;8.32;;;4.28;;
44636;SDS011;30343;0.000;0.000;2022-08-11T06:29:49;10.00;;;4.50;;
44636;SDS011;30343;0.000;0.000;2022-08-11T06:32:43;14.35;;;5.35;;
44636;SDS011;30343;0.000;0.000;2022-08-11T06:38:41;12.15;;;5.05;;
44636;SDS011;30343;0.000;0.000;2022-08-11T06:41:59;11.38;;;4.25;;
44636;SDS011;30343;0.000;0.000;2022-08-11T06:44:50;10.55;;;4.53;;
44636;SDS011;30343;0.000;0.000;2022-08-11T06:47:49;10.90;;;4.65;;
44636;SDS011;30343;0.000;0.000;2022-08-11T06:50:37;9.50;;;4.35;;
44636;SDS011;30343;0.000;0.000;2022-08-11T06:53:50;16.23;;;4.43;;
44636;SDS011;30343;0.000;0.000;2022-08-11T06:56:45;19.23;;;5.30;;
44636;SDS011;30343;0.000;0.000;2022-08-11T06:59:49;14.30;;;5.03;;
44636;SDS011;30343;0.000;0.000;2022-08-11T07:02:57;14.65;;;4.85;;
44636;SDS011;30343;0.000;0.000;2022-08-11T07:05:46;11.50;;;4.75;;
44636;SDS011;30343;0.000;0.000;2022-08-11T07:15:32;14.93;;;5.22;;
44636;SDS011;30343;0.000;0.000;2022-08-11T07:18:26;13.00;;;5.38;;
44636;SDS011;30343;0.000;0.000;2022-08-11T07:21:33;16.35;;;5.25;;
44636;SDS011;30343;0.000;0.000;2022-08-11T07:25:21;30.83;;;6.38;;
44636;SDS011;30343;0.000;0.000;2022-08-11T07:28:11;9.27;;;4.53;;
44636;SDS011;30343;0.000;0.000;2022-08-11T07:31:28;13.43;;;5.47;;
44636;SDS011;30343;0.000;0.000;2022-08-11T07:34:34;11.32;;;4.65;;
44636;SDS011;30343;0.000;0.000;2022-08-11T07:37:20;15.85;;;5.50;;
44636;SDS011;30343;0.000;0.000;2022-08-11T07:40:08;10.25;;;3.83;;
44636;SDS011;30343;0.000;0.000;2022-08-11T07:42:53;9.13;;;4.78;;
44636;SDS011;30343;0.000;0.000;2022-08-11T07:45:43;11.60;;;4.22;;
44636;SDS011;30343;0.000;0.000;2022-08-11T07:48:50;12.25;;;4.60;;
44636;SDS011;30343;0.000;0.000;2022-08-11T07:51:54;6.47;;;3.88;;
44636;SDS011;30343;0.000;0.000;2022-08-11T07:54:59;9.82;;;4.07;;
44636;SDS011;30343;0.000;0.000;2022-08-11T07:57:48;8.63;;;3.85;;
44636;SDS011;30343;0.000;0.000;2022-08-11T08:00:52;8.88;;;3.92;;
44636;SDS011;30343;0.000;0.000;2022-08-11T08:03:58;8.65;;;3.67;;
44636;SDS011;30343;0.000;0.000;2022-08-11T08:07:03;6.07;;;3.88;;
44636;SDS011;30343;0.000;0.000;2022-08-11T08:10:06;11.07;;;3.67;;
44636;SDS011;30343;0.000;0.000;2022-08-11T08:13:11;6.35;;;3.63;;
44636;SDS011;30343;0.000;0.000;2022-08-11T08:16:14;5.13;;;3.35;;
44636;SDS011;30343;0.000;0.000;2022-08-11T08:19:18;10.77;;;4.57;;
44636;SDS011;30343;0.000;0.000;2022-08-11T08:22:04;5.65;;;3.20;;
44636;SDS011;30343;0.000;0.000;2022-08-11T08:24:48;8.85;;;3.72;;
44636;SDS011;30343;0.000;0.000;2022-08-11T08:27:33;5.97;;;3.05;;
44636;SDS011;30343;0.000;0.000;2022-08-11T08:30:18;6.53;;;3.15;;
44636;SDS011;30343;0.000;0.000;2022-08-11T08:33:22;10.48;;;3.58;;
44636;SDS011;30343;0.000;0.000;2022-08-11T08:36:09;7.38;;;3.15;;
44636;SDS011;30343;0.000;0.000;2022-08-11T08:38:59;7.13;;;3.10;;
44636;SDS011;30343;0.000;0.000;2022-08-11T08:41:43;4.03;;;3.15;;
44636;SDS011;30343;0.000;0.000;2022-08-11T08:44:28;4.95;;;2.55;;
44636;SDS011;30343;0.000;0.000;2022-08-11T08:47:19;5.22;;;3.17;;
44636;SDS011;30343;0.000;0.000;2022-08-11T08:50:09;5.93;;;3.10;;
44636;SDS011;30343;0.000;0.000;2022-08-11T08:52:59;5.13;;;3.22;;
44636;SDS011;30343;0.000;0.000;2022-08-11T08:55:48;5.78;;;3.42;;
44636;SDS011;30343;0.000;0.000;2022-08-11T08:58:35;4.63;;;2.58;;
44636;SDS011;30343;0.000;0.000;2022-08-11T09:01:21;7.13;;;3.22;;
44636;SDS011;30343;0.000;0.000;2022-08-11T09:04:07;6.28;;;3.25;;
44636;SDS011;30343;0.000;0.000;2022-08-11T09:06:53;5.50;;;2.70;;
44636;SDS011;30343;0.000;0.000;2022-08-11T09:09:50;5.45;;;2.92;;
44636;SDS011;30343;0.000;0.000;2022-08-11T09:12:37;4.15;;;2.30;;
44636;SDS011;30343;0.000;0.000;2022-08-11T09:15:24;5.68;;;2.80;;
44636;SDS011;30343;0.000;0.000;2022-08-11T09:18:08;7.63;;;3.30;;
44636;SDS011;30343;0.000;0.000;2022-08-11T09:20:54;6.20;;;2.80;;
44636;SDS011;30343;0.000;0.000;2022-08-11T09:23:40;3.95;;;2.92;;
44636;SDS011;30343;0.000;0.000;2022-08-11T09:29:45;4.85;;;2.88;;
44636;SDS011;30343;0.000;0.000;2022-08-11T09:32:29;4.10;;;2.92;;
44636;SDS011;30343;0.000;0.000;2022-08-11T09:35:15;6.43;;;2.60;;
44636;SDS011;30343;0.000;0.000;2022-08-11T09:38:04;5.55;;;3.03;;
44636;SDS011;30343;0.000;0.000;2022-08-11T09:43:57;3.78;;;2.70;;
44636;SDS011;30343;0.000;0.000;2022-08-11T09:47:02;2.95;;;2.40;;
44636;SDS011;30343;0.000;0.000;2022-08-11T09:49:58;7.75;;;3.00;;
44636;SDS011;30343;0.000;0.000;2022-08-11T09:52:44;3.65;;;2.60;;
44636;SDS011;30343;0.000;0.000;2022-08-11T09:55:28;3.35;;;2.33;;
44636;SDS011;30343;0.000;0.000;2022-08-11T09:58:13;4.30;;;2.78;;
44636;SDS011;30343;0.000;0.000;2022-08-11T10:01:01;3.38;;;2.63;;
44636;SDS011;30343;0.000;0.000;2022-08-11T10:03:46;5.05;;;3.08;;
44636;SDS011;30343;0.000;0.000;2022-08-11T10:06:31;3.70;;;2.47;;
44636;SDS011;30343;0.000;0.000;2022-08-11T10:12:31;3.10;;;2.22;;
44636;SDS011;30343;0.000;0.000;2022-08-11T10:15:20;6.55;;;3.17;;
44636;SDS011;30343;0.000;0.000;2022-08-11T10:18:18;4.78;;;3.15;;
44636;SDS011;30343;0.000;0.000;2022-08-11T10:24:26;5.32;;;2.83;;
44636;SDS011;30343;0.000;0.000;2022-08-11T10:27:29;6.57;;;2.80;;
44636;SDS011;30343;0.000;0.000;2022-08-11T10:30:16;4.65;;;3.03;;
44636;SDS011;30343;0.000;0.000;2022-08-11T10:33:19;3.65;;;2.70;;
44636;SDS011;30343;0.000;0.000;2022-08-11T10:36:22;5.93;;;2.85;;
44636;SDS011;30343;0.000;0.000;2022-08-11T10:39:12;6.40;;;2.60;;
44636;SDS011;30343;0.000;0.000;2022-08-11T10:42:02;5.68;;;3.00;;
44636;SDS011;30343;0.000;0.000;2022-08-11T10:45:06;7.20;;;3.10;;
44636;SDS011;30343;0.000;0.000;2022-08-11T10:48:12;12.18;;;3.20;;
44636;SDS011;30343;0.000;0.000;2022-08-11T10:50:58;3.40;;;2.40;;
44636;SDS011;30343;0.000;0.000;2022-08-11T10:53:57;5.55;;;3.00;;
44636;SDS011;30343;0.000;0.000;2022-08-11T10:57:00;5.60;;;2.67;;
44636;SDS011;30343;0.000;0.000;2022-08-11T11:00:05;6.07;;;3.67;;
44636;SDS011;30343;0.000;0.000;2022-08-11T11:02:52;7.20;;;2.92;;
44636;SDS011;30343;0.000;0.000;2022-08-11T11:05:36;6.72;;;3.17;;
44636;SDS011;30343;0.000;0.000;2022-08-11T11:08:25;6.65;;;2.90;;
44636;SDS011;30343;0.000;0.000;2022-08-11T11:11:33;6.93;;;2.67;;
44636;SDS011;30343;0.000;0.000;2022-08-11T11:14:39;6.50;;;3.17;;
44636;SDS011;30343;0.000;0.000;2022-08-11T11:17:45;9.52;;;2.67;;
44636;SDS011;30343;0.000;0.000;2022-08-11T11:21:22;6.78;;;3.33;;
44636;SDS011;30343;0.000;0.000;2022-08-11T11:23:54;4.95;;;2.92;;
44636;SDS011;30343;0.000;0.000;2022-08-11T11:26:59;6.07;;;3.47;;
44636;SDS011;30343;0.000;0.000;2022-08-11T11:30:06;5.28;;;2.88;;
44636;SDS011;30343;0.000;0.000;2022-08-11T11:38:39;4.47;;;3.10;;
44636;SDS011;30343;0.000;0.000;2022-08-11T11:41:24;3.75;;;2.75;;
44636;SDS011;30343;0.000;0.000;2022-08-11T11:44:11;4.78;;;3.00;;
44636;SDS011;30343;0.000;0.000;2022-08-11T11:46:59;5.53;;;2.95;;
44636;SDS011;30343;0.000;0.000;2022-08-11T11:49:45;6.50;;;3.60;;
44636;SDS011;30343;0.000;0.000;2022-08-11T11:52:32;7.25;;;3.40;;
44636;SDS011;30343;0.000;0.000;2022-08-11T11:55:19;4.10;;;3.28;;
44636;SDS011;30343;0.000;0.000;2022-08-11T11:58:05;7.65;;;3.00;;
44636;SDS011;30343;0.000;0.000;2022-08-11T12:01:08;7.78;;;3.08;;
44636;SDS011;30343;0.000;0.000;2022-08-11T12:04:00;4.90;;;2.80;;
44636;SDS011;30343;0.000;0.000;2022-08-11T12:06:48;5.00;;;3.28;;
44636;SDS011;30343;0.000;0.000;2022-08-11T12:09:37;4.47;;;3.00;;
44636;SDS011;30343;0.000;0.000;2022-08-11T12:12:25;3.03;;;2.25;;
44636;SDS011;30343;0.000;0.000;2022-08-11T12:15:29;5.93;;;3.08;;
44636;SDS011;30343;0.000;0.000;2022-08-11T12:18:14;5.57;;;2.72;;
44636;SDS011;30343;0.000;0.000;2022-08-11T12:21:02;5.82;;;2.92;;
44636;SDS011;30343;0.000;0.000;2022-08-11T12:23:48;3.70;;;2.47;;
44636;SDS011;30343;0.000;0.000;2022-08-11T12:26:52;4.05;;;2.95;;
44636;SDS011;30343;0.000;0.000;2022-08-11T12:29:59;4.10;;;2.40;;
44636;SDS011;30343;0.000;0.000;2022-08-11T12:32:48;4.22;;;2.85;;
44636;SDS011;30343;0.000;0.000;2022-08-11T12:35:32;4.38;;;2.97;;
44636;SDS011;30343;0.000;0.000;2022-08-11T12:38:18;5.40;;;2.85;;
44636;SDS011;30343;0.000;0.000;2022-08-11T12:41:06;5.93;;;2.72;;
44636;SDS011;30343;0.000;0.000;2022-08-11T12:44:09;6.38;;;3.47;;
44636;SDS011;30343;0.000;0.000;2022-08-11T12:47:23;5.22;;;3.45;;
44636;SDS011;30343;0.000;0.000;2022-08-11T12:50:28;6.72;;;3.08;;
44636;SDS011;30343;0.000;0.000;2022-08-11T12:53:31;9.40;;;3.13;;
44636;SDS011;30343;0.000;0.000;2022-08-11T12:56:22;4.20;;;2.58;;
44636;SDS011;30343;0.000;0.000;2022-08-11T12:59:28;3.75;;;2.65;;
44636;SDS011;30343;0.000;0.000;2022-08-11T13:02:35;5.90;;;2.95;;
44636;SDS011;30343;0.000;0.000;2022-08-11T13:05:39;7.25;;;3.20;;
44636;SDS011;30343;0.000;0.000;2022-08-11T13:08:26;3.97;;;2.78;;
44636;SDS011;30343;0.000;0.000;2022-08-11T13:11:12;5.45;;;2.67;;
44636;SDS011;30343;0.000;0.000;2022-08-11T13:14:18;6.82;;;3.17;;
44636;SDS011;30343;0.000;0.000;2022-08-11T13:17:05;6.38;;;3.10;;
44636;SDS011;30343;0.000;0.000;2022-08-11T13:20:07;6.68;;;2.85;;
44636;SDS011;30343;0.000;0.000;2022-08-11T13:22:55;5.18;;;3.00;;
44636;SDS011;30343;0.000;0.000;2022-08-11T13:25:41;4.38;;;2.58;;
44636;SDS011;30343;0.000;0.000;2022-08-11T13:28:31;5.45;;;2.60;;
44636;SDS011;30343;0.000;0.000;2022-08-11T13:31:19;4.47;;;2.45;;
44636;SDS011;30343;0.000;0.000;2022-08-11T13:34:06;7.95;;;2.83;;
44636;SDS011;30343;0.000;0.000;2022-08-11T13:36:52;3.30;;;2.28;;
44636;SDS011;30343;0.000;0.000;2022-08-11T13:39:41;3.85;;;2.60;;
44636;SDS011;30343;0.000;0.000;2022-08-11T13:42:30;7.60;;;2.78;;
44636;SDS011;30343;0.000;0.000;2022-08-11T13:45:14;3.67;;;2.22;;
44636;SDS011;30343;0.000;0.000;2022-08-11T13:47:59;4.63;;;2.47;;
44636;SDS011;30343;0.000;0.000;2022-08-11T13:50:49;6.55;;;3.00;;
44636;SDS011;30343;0.000;0.000;2022-08-11T13:53:52;12.32;;;3.22;;
44636;SDS011;30343;0.000;0.000;2022-08-11T13:56:37;4.90;;;2.47;;
44636;SDS011;30343;0.000;0.000;2022-08-11T13:59:27;3.60;;;2.65;;
44636;SDS011;30343;0.000;0.000;2022-08-11T14:02:15;7.10;;;2.67;;
44636;SDS011;30343;0.000;0.000;2022-08-11T14:05:02;6.00;;;3.00;;
44636;SDS011;30343;0.000;0.000;2022-08-11T14:07:51;5.10;;;2.63;;
44636;SDS011;30343;0.000;0.000;2022-08-11T14:10:38;5.05;;;2.72;;
44636;SDS011;30343;0.000;0.000;2022-08-11T14:13:25;7.90;;;2.47;;
44636;SDS011;30343;0.000;0.000;2022-08-11T14:16:27;5.00;;;2.63;;
44636;SDS011;30343;0.000;0.000;2022-08-11T14:19:20;9.38;;;3.10;;
44636;SDS011;30343;0.000;0.000;2022-08-11T14:22:07;3.97;;;3.25;;
44636;SDS011;30343;0.000;0.000;2022-08-11T14:24:51;5.00;;;2.47;;
44636;SDS011;30343;0.000;0.000;2022-08-11T14:27:36;18.38;;;3.58;;
44636;SDS011;30343;0.000;0.000;2022-08-11T14:30:20;6.63;;;2.83;;
44636;SDS011;30343;0.000;0.000;2022-08-11T14:33:23;4.55;;;3.03;;
44636;SDS011;30343;0.000;0.000;2022-08-11T14:36:07;4.45;;;2.55;;
44636;SDS011;30343;0.000;0.000;2022-08-11T14:38:56;3.47;;;2.50;;
44636;SDS011;30343;0.000;0.000;2022-08-11T14:41:57;4.30;;;2.95;;
44636;SDS011;30343;0.000;0.000;2022-08-11T14:45:05;6.43;;;3.42;;
44636;SDS011;30343;0.000;0.000;2022-08-11T14:48:12;3.63;;;2.78;;
44636;SDS011;30343;0.000;0.000;2022-08-11T14:50:56;6.85;;;3.35;;
44636;SDS011;30343;0.000;0.000;2022-08-11T14:53:47;3.95;;;2.67;;
44636;SDS011;30343;0.000;0.000;2022-08-11T14:56:55;5.97;;;3.08;;
44636;SDS011;30343;0.000;0.000;2022-08-11T14:59:40;6.47;;;2.85;;
44636;SDS011;30343;0.000;0.000;2022-08-11T15:02:32;5.22;;;2.70;;
44636;SDS011;30343;0.000;0.000;2022-08-11T15:05:55;4.30;;;2.63;;
44636;SDS011;30343;0.000;0.000;2022-08-11T15:08:42;4.95;;;2.40;;
44636;SDS011;30343;0.000;0.000;2022-08-11T15:11:39;5.65;;;2.60;;
44636;SDS011;30343;0.000;0.000;2022-08-11T15:14:45;8.23;;;2.60;;
44636;SDS011;30343;0.000;0.000;2022-08-11T15:17:54;4.13;;;2.58;;
44636;SDS011;30343;0.000;0.000;2022-08-11T15:20:41;6.70;;;2.72;;
44636;SDS011;30343;0.000;0.000;2022-08-11T15:23:44;8.88;;;3.17;;
44636;SDS011;30343;0.000;0.000;2022-08-11T15:26:47;3.63;;;2.90;;
44636;SDS011;30343;0.000;0.000;2022-08-11T15:29:52;3.95;;;2.40;;
44636;SDS011;30343;0.000;0.000;2022-08-11T15:32:57;6.70;;;2.58;;
44636;SDS011;30343;0.000;0.000;2022-08-11T15:36:00;4.78;;;2.63;;
44636;SDS011;30343;0.000;0.000;2022-08-11T15:39:11;4.50;;;2.97;;
44636;SDS011;30343;0.000;0.000;2022-08-11T15:42:11;9.50;;;3.08;;
44636;SDS011;30343;0.000;0.000;2022-08-11T15:45:16;8.73;;;3.00;;
44636;SDS011;30343;0.000;0.000;2022-08-11T15:51:28;11.13;;;3.03;;
44636;SDS011;30343;0.000;0.000;2022-08-11T15:54:17;6.53;;;3.05;;
44636;SDS011;30343;0.000;0.000;2022-08-11T15:57:04;8.48;;;2.75;;
44636;SDS011;30343;0.000;0.000;2022-08-11T15:59:49;4.18;;;2.88;;
44636;SDS011;30343;0.000;0.000;2022-08-11T16:02:52;7.78;;;3.30;;
44636;SDS011;30343;0.000;0.000;2022-08-11T16:05:59;4.88;;;3.00;;
44636;SDS011;30343;0.000;0.000;2022-08-11T16:08:43;3.92;;;2.70;;
44636;SDS011;30343;0.000;0.000;2022-08-11T16:11:28;9.48;;;3.20;;
44636;SDS011;30343;0.000;0.000;2022-08-11T16:14:13;4.35;;;2.75;;
44636;SDS011;30343;0.000;0.000;2022-08-11T16:17:22;4.28;;;2.92;;
44636;SDS011;30343;0.000;0.000;2022-08-11T16:20:10;7.50;;;2.47;;
44636;SDS011;30343;0.000;0.000;2022-08-11T16:22:58;5.70;;;2.80;;
44636;SDS011;30343;0.000;0.000;2022-08-11T16:25:45;7.75;;;3.05;;
44636;SDS011;30343;0.000;0.000;2022-08-11T16:28:30;11.45;;;2.47;;
44636;SDS011;30343;0.000;0.000;2022-08-11T16:31:18;7.57;;;2.72;;
44636;SDS011;30343;0.000;0.000;2022-08-11T16:34:04;4.30;;;2.53;;
44636;SDS011;30343;0.000;0.000;2022-08-11T16:37:09;3.08;;;2.58;;
44636;SDS011;30343;0.000;0.000;2022-08-11T16:40:17;10.68;;;3.15;;
44636;SDS011;30343;0.000;0.000;2022-08-11T16:43:06;13.95;;;2.88;;
44636;SDS011;30343;0.000;0.000;2022-08-11T16:46:14;8.02;;;3.33;;
44636;SDS011;30343;0.000;0.000;2022-08-11T16:49:24;8.05;;;3.38;;
44636;SDS011;30343;0.000;0.000;2022-08-11T16:52:09;4.05;;;2.55;;
44636;SDS011;30343;0.000;0.000;2022-08-11T16:54:56;7.65;;;2.40;;
44636;SDS011;30343;0.000;0.000;2022-08-11T16:57:43;5.25;;;2.92;;
44636;SDS011;30343;0.000;0.000;2022-08-11T17:00:47;6.03;;;3.35;;
44636;SDS011;30343;0.000;0.000;2022-08-11T17:03:33;7.95;;;2.65;;
44636;SDS011;30343;0.000;0.000;2022-08-11T17:06:45;5.05;;;2.92;;
44636;SDS011;30343;0.000;0.000;2022-08-11T17:09:53;6.18;;;3.45;;
44636;SDS011;30343;0.000;0.000;2022-08-11T17:13:00;6.65;;;3.35;;
44636;SDS011;30343;0.000;0.000;2022-08-11T17:15:51;4.93;;;3.08;;
44636;SDS011;30343;0.000;0.000;2022-08-11T17:21:28;4.53;;;2.50;;
44636;SDS011;30343;0.000;0.000;2022-08-11T17:24:12;5.75;;;3.35;;
44636;SDS011;30343;0.000;0.000;2022-08-11T17:27:00;6.55;;;3.10;;
44636;SDS011;30343;0.000;0.000;2022-08-11T17:32:38;5.57;;;3.15;;
44636;SDS011;30343;0.000;0.000;2022-08-11T17:35:43;4.80;;;3.33;;
44636;SDS011;30343;0.000;0.000;2022-08-11T17:38:33;6.35;;;2.88;;
44636;SDS011;30343;0.000;0.000;2022-08-11T17:41:19;5.55;;;2.55;;
44636;SDS011;30343;0.000;0.000;2022-08-11T17:44:25;8.55;;;3.17;;
44636;SDS011;30343;0.000;0.000;2022-08-11T17:47:33;8.68;;;2.80;;
44636;SDS011;30343;0.000;0.000;2022-08-11T17:50:39;12.80;;;3.05;;
44636;SDS011;30343;0.000;0.000;2022-08-11T17:53:25;6.18;;;3.08;;
44636;SDS011;30343;0.000;0.000;2022-08-11T17:56:32;5.05;;;3.10;;
44636;SDS011;30343;0.000;0.000;2022-08-11T17:59:38;4.47;;;2.22;;
44636;SDS011;30343;0.000;0.000;2022-08-11T18:02:36;13.25;;;2.97;;
44636;SDS011;30343;0.000;0.000;2022-08-11T18:05:41;8.73;;;2.90;;
44636;SDS011;30343;0.000;0.000;2022-08-11T18:08:35;7.72;;;2.83;;
44636;SDS011;30343;0.000;0.000;2022-08-11T18:11:45;7.78;;;2.35;;
44636;SDS011;30343;0.000;0.000;2022-08-11T18:14:52;6.78;;;2.75;;
44636;SDS011;30343;0.000;0.000;2022-08-11T18:17:56;7.03;;;2.75;;
44636;SDS011;30343;0.000;0.000;2022-08-11T18:20:59;3.90;;;2.72;;
44636;SDS011;30343;0.000;0.000;2022-08-11T18:24:06;5.88;;;2.80;;
44636;SDS011;30343;0.000;0.000;2022-08-11T18:27:14;4.05;;;2.80;;
44636;SDS011;30343;0.000;0.000;2022-08-11T18:30:21;5.55;;;2.88;;
44636;SDS011;30343;0.000;0.000;2022-08-11T18:33:27;7.70;;;2.55;;
44636;SDS011;30343;0.000;0.000;2022-08-11T18:36:39;11.45;;;3.42;;
44636;SDS011;30343;0.000;0.000;2022-08-11T18:40:16;5.75;;;2.97;;
44636;SDS011;30343;0.000;0.000;2022-08-11T18:43:23;5.80;;;2.85;;
44636;SDS011;30343;0.000;0.000;2022-08-11T18:46:29;5.75;;;2.90;;
44636;SDS011;30343;0.000;0.000;2022-08-11T18:49:37;4.50;;;2.42;;
44636;SDS011;30343;0.000;0.000;2022-08-11T18:52:43;7.10;;;3.22;;
44636;SDS011;30343;0.000;0.000;2022-08-11T18:55:52;6.45;;;3.38;;
44636;SDS011;30343;0.000;0.000;2022-08-11T18:58:59;5.88;;;3.05;;
44636;SDS011;30343;0.000;0.000;2022-08-11T19:02:08;7.57;;;3.30;;
44636;SDS011;30343;0.000;0.000;2022-08-11T19:05:18;5.57;;;3.30;;
44636;SDS011;30343;0.000;0.000;2022-08-11T19:08:30;7.13;;;3.42;;
44636;SDS011;30343;0.000;0.000;2022-08-11T19:11:38;6.95;;;3.72;;
44636;SDS011;30343;0.000;0.000;2022-08-11T19:14:42;5.35;;;2.88;;
44636;SDS011;30343;0.000;0.000;2022-08-11T19:17:49;9.05;;;3.70;;
44636;SDS011;30343;0.000;0.000;2022-08-11T19:20:55;7.40;;;3.65;;
44636;SDS011;30343;0.000;0.000;2022-08-11T19:24:01;7.68;;;4.22;;
44636;SDS011;30343;0.000;0.000;2022-08-11T19:27:05;5.82;;;3.80;;
44636;SDS011;30343;0.000;0.000;2022-08-11T19:30:10;9.20;;;3.70;;
44636;SDS011;30343;0.000;0.000;2022-08-11T19:33:13;7.07;;;3.55;;
44636;SDS011;30343;0.000;0.000;2022-08-11T19:36:19;13.32;;;3.72;;
44636;SDS011;30343;0.000;0.000;2022-08-11T19:39:23;5.53;;;3.75;;
44636;SDS011;30343;0.000;0.000;2022-08-11T19:42:34;7.82;;;3.22;;
44636;SDS011;30343;0.000;0.000;2022-08-11T19:45:38;16.02;;;3.28;;
44636;SDS011;30343;0.000;0.000;2022-08-11T19:48:45;11.38;;;4.35;;
44636;SDS011;30343;0.000;0.000;2022-08-11T19:51:51;7.72;;;3.83;;
44636;SDS011;30343;0.000;0.000;2022-08-11T19:54:58;10.00;;;3.63;;
44636;SDS011;30343;0.000;0.000;2022-08-11T19:58:05;4.90;;;3.58;;
44636;SDS011;30343;0.000;0.000;2022-08-11T20:01:10;6.63;;;3.58;;
44636;SDS011;30343;0.000;0.000;2022-08-11T20:04:14;8.70;;;4.30;;
44636;SDS011;30343;0.000;0.000;2022-08-11T20:07:17;8.93;;;4.45;;
44636;SDS011;30343;0.000;0.000;2022-08-11T20:10:20;8.40;;;4.22;;
44636;SDS011;30343;0.000;0.000;2022-08-11T20:13:24;6.78;;;3.90;;
44636;SDS011;30343;0.000;0.000;2022-08-11T20:16:29;6.88;;;3.83;;
44636;SDS011;30343;0.000;0.000;2022-08-11T20:19:36;6.70;;;4.13;;
44636;SDS011;30343;0.000;0.000;2022-08-11T20:22:41;8.65;;;3.60;;
44636;SDS011;30343;0.000;0.000;2022-08-11T20:25:46;6.53;;;3.63;;
44636;SDS011;30343;0.000;0.000;2022-08-11T20:28:54;10.05;;;4.53;;
44636;SDS011;30343;0.000;0.000;2022-08-11T20:31:59;6.07;;;3.67;;
44636;SDS011;30343;0.000;0.000;2022-08-11T20:35:03;11.32;;;4.18;;
44636;SDS011;30343;0.000;0.000;2022-08-11T20:38:08;10.00;;;4.28;;
44636;SDS011;30343;0.000;0.000;2022-08-11T20:41:15;5.43;;;3.45;;
44636;SDS011;30343;0.000;0.000;2022-08-11T20:44:20;7.13;;;3.72;;
44636;SDS011;30343;0.000;0.000;2022-08-11T20:47:27;12.85;;;3.72;;
44636;SDS011;30343;0.000;0.000;2022-08-11T20:50:32;4.55;;;3.17;;
44636;SDS011;30343;0.000;0.000;2022-08-11T20:53:38;8.45;;;3.58;;
44636;SDS011;30343;0.000;0.000;2022-08-11T20:56:43;5.70;;;3.70;;
44636;SDS011;30343;0.000;0.000;2022-08-11T20:59:47;7.15;;;3.20;;
44636;SDS011;30343;0.000;0.000;2022-08-11T21:02:51;5.55;;;3.70;;
44636;SDS011;30343;0.000;0.000;2022-08-11T21:05:56;6.10;;;3.75;;
44636;SDS011;30343;0.000;0.000;2022-08-11T21:09:02;9.03;;;3.70;;
44636;SDS011;30343;0.000;0.000;2022-08-11T21:12:08;7.03;;;3.50;;
44636;SDS011;30343;0.000;0.000;2022-08-11T21:15:17;7.47;;;3.20;;
44636;SDS011;30343;0.000;0.000;2022-08-11T21:18:25;6.60;;;3.30;;
44636;SDS011;30343;0.000;0.000;2022-08-11T21:21:32;6.32;;;3.50;;
44636;SDS011;30343;0.000;0.000;2022-08-11T21:27:40;8.07;;;3.90;;
44636;SDS011;30343;0.000;0.000;2022-08-11T21:30:44;7.00;;;4.10;;
44636;SDS011;30343;0.000;0.000;2022-08-11T21:33:50;6.88;;;4.07;;
44636;SDS011;30343;0.000;0.000;2022-08-11T21:36:56;6.05;;;3.80;;
44636;SDS011;30343;0.000;0.000;2022-08-11T21:40:03;6.25;;;3.38;;
44636;SDS011;30343;0.000;0.000;2022-08-11T21:43:06;12.73;;;3.67;;
44636;SDS011;30343;0.000;0.000;2022-08-11T21:49:14;5.07;;;3.97;;
44636;SDS011;30343;0.000;0.000;2022-08-11T21:52:21;5.32;;;3.50;;